sensor_id;sensor_type;location;lat;lon;timestamp;P1;durP1;ratioP1;P2;durP2;ratioP2
5813;SDS011;2933;52.302;8.134;2022-11-20T00:01:34;12.37;;;7.33;;
5813;SDS011;2933;52.302;8.134;2022-11-20T00:06:36;15.27;;;7.60;;
5813;SDS011;2933;52.302;8.134;2022-11-20T00:11:39;13.90;;;7.97;;
5813;SDS011;2933;52.302;8.134;2022-11-20T00:16:41;13.43;;;6.43;;
5813;SDS011;2933;52.302;8.134;2022-11-20T00:21:42;14.97;;;7.43;;
5813;SDS011;2933;52.302;8.134;2022-11-20T00:26:45;12.93;;;7.60;;
5813;SDS011;2933;52.302;8.134;2022-11-20T00:31:47;15.40;;;7.90;;
5813;SDS011;2933;52.302;8.134;2022-11-20T00:36:48;12.87;;;7.50;;
5813;SDS011;2933;52.302;8.134;2022-11-20T00:41:51;8.57;;;6.20;;
5813;SDS011;2933;52.302;8.134;2022-11-20T00:46:53;15.70;;;7.50;;
5813;SDS011;2933;52.302;8.134;2022-11-20T00:51:54;19.03;;;7.97;;
5813;SDS011;2933;52.302;8.134;2022-11-20T00:56:57;15.47;;;7.33;;
5813;SDS011;2933;52.302;8.134;2022-11-20T01:01:58;12.10;;;7.10;;
5813;SDS011;2933;52.302;8.134;2022-11-20T01:07:00;14.87;;;7.73;;
5813;SDS011;2933;52.302;8.134;2022-11-20T01:12:03;12.90;;;7.20;;
5813;SDS011;2933;52.302;8.134;2022-11-20T01:17:05;17.33;;;7.97;;
5813;SDS011;2933;52.302;8.134;2022-11-20T01:22:06;14.40;;;7.30;;
5813;SDS011;2933;52.302;8.134;2022-11-20T01:27:09;12.53;;;7.00;;
5813;SDS011;2933;52.302;8.134;2022-11-20T01:32:11;11.40;;;6.93;;
5813;SDS011;2933;52.302;8.134;2022-11-20T01:37:12;12.07;;;6.33;;
5813;SDS011;2933;52.302;8.134;2022-11-20T01:42:15;13.33;;;7.50;;
5813;SDS011;2933;52.302;8.134;2022-11-20T01:47:35;10.57;;;6.47;;
5813;SDS011;2933;52.302;8.134;2022-11-20T01:52:41;10.63;;;7.00;;
5813;SDS011;2933;52.302;8.134;2022-11-20T01:57:48;15.13;;;7.00;;
5813;SDS011;2933;52.302;8.134;2022-11-20T02:02:50;13.33;;;7.23;;
5813;SDS011;2933;52.302;8.134;2022-11-20T02:07:55;14.40;;;7.00;;
5813;SDS011;2933;52.302;8.134;2022-11-20T02:12:59;15.90;;;7.30;;
5813;SDS011;2933;52.302;8.134;2022-11-20T02:18:19;15.47;;;7.60;;
5813;SDS011;2933;52.302;8.134;2022-11-20T02:23:23;11.00;;;7.37;;
5813;SDS011;2933;52.302;8.134;2022-11-20T02:28:31;12.10;;;7.33;;
5813;SDS011;2933;52.302;8.134;2022-11-20T02:33:32;9.53;;;6.10;;
5813;SDS011;2933;52.302;8.134;2022-11-20T02:38:34;10.70;;;5.90;;
5813;SDS011;2933;52.302;8.134;2022-11-20T02:43:37;13.83;;;6.97;;
5813;SDS011;2933;52.302;8.134;2022-11-20T02:48:38;12.97;;;6.80;;
5813;SDS011;2933;52.302;8.134;2022-11-20T02:53:40;15.03;;;6.73;;
5813;SDS011;2933;52.302;8.134;2022-11-20T02:58:43;11.47;;;6.33;;
5813;SDS011;2933;52.302;8.134;2022-11-20T03:03:44;7.33;;;5.57;;
5813;SDS011;2933;52.302;8.134;2022-11-20T03:08:48;10.37;;;5.97;;
5813;SDS011;2933;52.302;8.134;2022-11-20T03:13:51;8.97;;;6.20;;
5813;SDS011;2933;52.302;8.134;2022-11-20T03:18:52;12.40;;;7.30;;
5813;SDS011;2933;52.302;8.134;2022-11-20T03:23:54;11.83;;;6.87;;
5813;SDS011;2933;52.302;8.134;2022-11-20T03:28:58;15.10;;;7.80;;
5813;SDS011;2933;52.302;8.134;2022-11-20T03:34:01;21.37;;;7.63;;
5813;SDS011;2933;52.302;8.134;2022-11-20T03:39:03;12.00;;;6.20;;
5813;SDS011;2933;52.302;8.134;2022-11-20T03:44:07;12.20;;;6.87;;
5813;SDS011;2933;52.302;8.134;2022-11-20T03:49:10;12.73;;;6.37;;
5813;SDS011;2933;52.302;8.134;2022-11-20T03:54:11;11.77;;;6.30;;
5813;SDS011;2933;52.302;8.134;2022-11-20T03:59:14;25.80;;;7.43;;
5813;SDS011;2933;52.302;8.134;2022-11-20T04:04:15;9.67;;;5.80;;
5813;SDS011;2933;52.302;8.134;2022-11-20T04:09:17;11.47;;;6.67;;
5813;SDS011;2933;52.302;8.134;2022-11-20T04:14:20;11.13;;;6.60;;
5813;SDS011;2933;52.302;8.134;2022-11-20T04:19:21;12.50;;;6.43;;
5813;SDS011;2933;52.302;8.134;2022-11-20T04:24:23;10.10;;;6.23;;
5813;SDS011;2933;52.302;8.134;2022-11-20T04:29:26;9.60;;;6.30;;
5813;SDS011;2933;52.302;8.134;2022-11-20T04:34:27;9.83;;;5.50;;
5813;SDS011;2933;52.302;8.134;2022-11-20T04:39:29;13.00;;;6.70;;
5813;SDS011;2933;52.302;8.134;2022-11-20T04:44:32;11.57;;;6.27;;
5813;SDS011;2933;52.302;8.134;2022-11-20T04:49:33;9.83;;;6.20;;
5813;SDS011;2933;52.302;8.134;2022-11-20T04:54:35;8.93;;;5.90;;
5813;SDS011;2933;52.302;8.134;2022-11-20T04:59:38;10.83;;;6.00;;
5813;SDS011;2933;52.302;8.134;2022-11-20T05:04:39;10.20;;;6.37;;
5813;SDS011;2933;52.302;8.134;2022-11-20T05:09:41;7.17;;;5.83;;
5813;SDS011;2933;52.302;8.134;2022-11-20T05:14:44;9.80;;;6.37;;
5813;SDS011;2933;52.302;8.134;2022-11-20T05:19:45;10.13;;;6.40;;
5813;SDS011;2933;52.302;8.134;2022-11-20T05:24:47;11.33;;;6.77;;
5813;SDS011;2933;52.302;8.134;2022-11-20T05:29:49;10.17;;;6.77;;
5813;SDS011;2933;52.302;8.134;2022-11-20T05:34:51;12.93;;;6.83;;
5813;SDS011;2933;52.302;8.134;2022-11-20T05:39:53;7.93;;;5.70;;
5813;SDS011;2933;52.302;8.134;2022-11-20T05:44:55;9.27;;;6.07;;
5813;SDS011;2933;52.302;8.134;2022-11-20T05:49:57;7.80;;;6.00;;
5813;SDS011;2933;52.302;8.134;2022-11-20T05:54:59;12.10;;;6.17;;
5813;SDS011;2933;52.302;8.134;2022-11-20T06:00:02;9.83;;;6.43;;
5813;SDS011;2933;52.302;8.134;2022-11-20T06:05:04;11.90;;;6.33;;
5813;SDS011;2933;52.302;8.134;2022-11-20T06:10:07;14.40;;;5.80;;
5813;SDS011;2933;52.302;8.134;2022-11-20T06:15:10;13.03;;;6.30;;
5813;SDS011;2933;52.302;8.134;2022-11-20T06:20:12;9.50;;;5.90;;
5813;SDS011;2933;52.302;8.134;2022-11-20T06:25:14;9.03;;;6.37;;
5813;SDS011;2933;52.302;8.134;2022-11-20T06:30:17;13.57;;;6.90;;
5813;SDS011;2933;52.302;8.134;2022-11-20T06:35:18;9.23;;;6.40;;
5813;SDS011;2933;52.302;8.134;2022-11-20T06:40:20;17.33;;;6.97;;
5813;SDS011;2933;52.302;8.134;2022-11-20T06:45:22;10.10;;;6.77;;
5813;SDS011;2933;52.302;8.134;2022-11-20T06:50:24;10.80;;;7.07;;
5813;SDS011;2933;52.302;8.134;2022-11-20T06:55:25;9.37;;;6.30;;
5813;SDS011;2933;52.302;8.134;2022-11-20T07:00:28;15.03;;;8.40;;
5813;SDS011;2933;52.302;8.134;2022-11-20T07:05:30;11.77;;;7.33;;
5813;SDS011;2933;52.302;8.134;2022-11-20T07:10:31;16.90;;;8.90;;
5813;SDS011;2933;52.302;8.134;2022-11-20T07:15:35;12.37;;;7.40;;
5813;SDS011;2933;52.302;8.134;2022-11-20T07:20:36;13.47;;;8.90;;
5813;SDS011;2933;52.302;8.134;2022-11-20T07:25:38;20.70;;;9.30;;
5813;SDS011;2933;52.302;8.134;2022-11-20T07:30:40;21.70;;;10.10;;
5813;SDS011;2933;52.302;8.134;2022-11-20T07:35:42;19.43;;;9.50;;
5813;SDS011;2933;52.302;8.134;2022-11-20T07:40:44;22.70;;;11.30;;
5813;SDS011;2933;52.302;8.134;2022-11-20T07:45:47;21.20;;;9.87;;
5813;SDS011;2933;52.302;8.134;2022-11-20T07:50:48;21.70;;;10.30;;
5813;SDS011;2933;52.302;8.134;2022-11-20T07:55:50;21.87;;;10.30;;
5813;SDS011;2933;52.302;8.134;2022-11-20T08:00:54;16.20;;;10.13;;
5813;SDS011;2933;52.302;8.134;2022-11-20T08:05:58;17.20;;;9.73;;
5813;SDS011;2933;52.302;8.134;2022-11-20T08:10:59;15.60;;;8.83;;
5813;SDS011;2933;52.302;8.134;2022-11-20T08:16:16;15.20;;;9.20;;
5813;SDS011;2933;52.302;8.134;2022-11-20T08:21:18;21.00;;;10.47;;
5813;SDS011;2933;52.302;8.134;2022-11-20T08:26:20;13.80;;;8.30;;
5813;SDS011;2933;52.302;8.134;2022-11-20T08:31:24;18.67;;;9.70;;
5813;SDS011;2933;52.302;8.134;2022-11-20T08:36:27;22.50;;;10.10;;
5813;SDS011;2933;52.302;8.134;2022-11-20T08:41:28;22.70;;;11.00;;
5813;SDS011;2933;52.302;8.134;2022-11-20T08:46:34;15.57;;;10.07;;
5813;SDS011;2933;52.302;8.134;2022-11-20T08:51:37;18.43;;;9.73;;
5813;SDS011;2933;52.302;8.134;2022-11-20T08:56:39;16.67;;;9.40;;
5813;SDS011;2933;52.302;8.134;2022-11-20T09:01:42;18.00;;;9.90;;
5813;SDS011;2933;52.302;8.134;2022-11-20T09:06:44;18.53;;;9.20;;
5813;SDS011;2933;52.302;8.134;2022-11-20T09:11:45;14.40;;;8.70;;
5813;SDS011;2933;52.302;8.134;2022-11-20T09:16:48;19.43;;;9.70;;
5813;SDS011;2933;52.302;8.134;2022-11-20T09:21:50;15.67;;;8.80;;
5813;SDS011;2933;52.302;8.134;2022-11-20T09:26:51;17.87;;;9.27;;
5813;SDS011;2933;52.302;8.134;2022-11-20T09:31:54;15.33;;;9.13;;
5813;SDS011;2933;52.302;8.134;2022-11-20T09:36:56;23.60;;;9.73;;
5813;SDS011;2933;52.302;8.134;2022-11-20T09:47:41;18.80;;;10.07;;
5813;SDS011;2933;52.302;8.134;2022-11-20T09:52:58;25.50;;;11.17;;
5813;SDS011;2933;52.302;8.134;2022-11-20T09:58:12;26.93;;;10.70;;
5813;SDS011;2933;52.302;8.134;2022-11-20T10:03:26;21.50;;;10.63;;
5813;SDS011;2933;52.302;8.134;2022-11-20T10:08:39;19.50;;;10.00;;
5813;SDS011;2933;52.302;8.134;2022-11-20T10:13:46;19.93;;;10.93;;
5813;SDS011;2933;52.302;8.134;2022-11-20T10:19:05;25.43;;;11.83;;
5813;SDS011;2933;52.302;8.134;2022-11-20T10:29:47;18.70;;;9.43;;
5813;SDS011;2933;52.302;8.134;2022-11-20T10:35:00;22.70;;;10.13;;
5813;SDS011;2933;52.302;8.134;2022-11-20T10:40:05;18.97;;;9.87;;
5813;SDS011;2933;52.302;8.134;2022-11-20T10:45:27;21.13;;;10.20;;
5813;SDS011;2933;52.302;8.134;2022-11-20T10:50:40;27.40;;;11.60;;
5813;SDS011;2933;52.302;8.134;2022-11-20T10:55:50;23.80;;;11.00;;
5813;SDS011;2933;52.302;8.134;2022-11-20T11:01:03;23.03;;;10.50;;
5813;SDS011;2933;52.302;8.134;2022-11-20T11:06:10;21.80;;;10.60;;
5813;SDS011;2933;52.302;8.134;2022-11-20T11:11:18;25.83;;;9.80;;
5813;SDS011;2933;52.302;8.134;2022-11-20T11:16:25;27.27;;;12.27;;
5813;SDS011;2933;52.302;8.134;2022-11-20T11:21:29;26.73;;;10.33;;
5813;SDS011;2933;52.302;8.134;2022-11-20T11:26:30;27.93;;;11.00;;
5813;SDS011;2933;52.302;8.134;2022-11-20T11:31:33;24.97;;;11.23;;
5813;SDS011;2933;52.302;8.134;2022-11-20T11:36:37;20.30;;;10.37;;
5813;SDS011;2933;52.302;8.134;2022-11-20T11:41:38;28.23;;;11.00;;
5813;SDS011;2933;52.302;8.134;2022-11-20T11:46:44;25.07;;;10.47;;
5813;SDS011;2933;52.302;8.134;2022-11-20T11:51:59;26.80;;;11.57;;
5813;SDS011;2933;52.302;8.134;2022-11-20T11:57:10;23.07;;;9.73;;
5813;SDS011;2933;52.302;8.134;2022-11-20T12:02:22;23.60;;;10.70;;
5813;SDS011;2933;52.302;8.134;2022-11-20T12:07:36;27.97;;;11.43;;
5813;SDS011;2933;52.302;8.134;2022-11-20T12:12:42;28.97;;;11.70;;
5813;SDS011;2933;52.302;8.134;2022-11-20T12:17:46;25.50;;;10.67;;
5813;SDS011;2933;52.302;8.134;2022-11-20T12:22:51;26.53;;;11.67;;
5813;SDS011;2933;52.302;8.134;2022-11-20T12:28:00;28.70;;;11.67;;
5813;SDS011;2933;52.302;8.134;2022-11-20T12:33:28;24.00;;;11.67;;
5813;SDS011;2933;52.302;8.134;2022-11-20T12:38:57;32.50;;;12.20;;
5813;SDS011;2933;52.302;8.134;2022-11-20T12:44:14;27.17;;;11.37;;
5813;SDS011;2933;52.302;8.134;2022-11-20T12:49:45;25.47;;;11.57;;
5813;SDS011;2933;52.302;8.134;2022-11-20T12:54:59;29.80;;;11.27;;
5813;SDS011;2933;52.302;8.134;2022-11-20T13:00:17;24.77;;;11.07;;
5813;SDS011;2933;52.302;8.134;2022-11-20T13:05:21;23.20;;;9.97;;
5813;SDS011;2933;52.302;8.134;2022-11-20T13:10:32;29.70;;;12.60;;
5813;SDS011;2933;52.302;8.134;2022-11-20T13:15:42;22.57;;;11.67;;
5813;SDS011;2933;52.302;8.134;2022-11-20T13:20:51;21.37;;;9.80;;
5813;SDS011;2933;52.302;8.134;2022-11-20T13:26:04;28.87;;;10.73;;
5813;SDS011;2933;52.302;8.134;2022-11-20T13:31:09;20.43;;;10.60;;
5813;SDS011;2933;52.302;8.134;2022-11-20T13:36:31;17.30;;;9.20;;
5813;SDS011;2933;52.302;8.134;2022-11-20T13:41:36;19.97;;;9.47;;
5813;SDS011;2933;52.302;8.134;2022-11-20T13:46:40;18.03;;;10.03;;
5813;SDS011;2933;52.302;8.134;2022-11-20T13:51:44;23.30;;;13.07;;
5813;SDS011;2933;52.302;8.134;2022-11-20T13:56:54;25.53;;;12.60;;
5813;SDS011;2933;52.302;8.134;2022-11-20T14:02:09;18.80;;;10.70;;
5813;SDS011;2933;52.302;8.134;2022-11-20T14:07:13;20.70;;;10.00;;
5813;SDS011;2933;52.302;8.134;2022-11-20T14:12:17;20.57;;;10.77;;
5813;SDS011;2933;52.302;8.134;2022-11-20T14:17:21;20.03;;;10.90;;
5813;SDS011;2933;52.302;8.134;2022-11-20T14:22:26;24.47;;;12.30;;
5813;SDS011;2933;52.302;8.134;2022-11-20T14:27:32;25.13;;;11.67;;
5813;SDS011;2933;52.302;8.134;2022-11-20T14:32:35;19.97;;;10.30;;
5813;SDS011;2933;52.302;8.134;2022-11-20T14:37:37;22.97;;;11.00;;
5813;SDS011;2933;52.302;8.134;2022-11-20T14:42:43;24.63;;;11.60;;
5813;SDS011;2933;52.302;8.134;2022-11-20T14:47:44;24.60;;;11.10;;
5813;SDS011;2933;52.302;8.134;2022-11-20T14:52:51;23.93;;;12.00;;
5813;SDS011;2933;52.302;8.134;2022-11-20T14:57:58;22.97;;;11.60;;
5813;SDS011;2933;52.302;8.134;2022-11-20T15:03:01;22.67;;;10.17;;
5813;SDS011;2933;52.302;8.134;2022-11-20T15:08:06;22.47;;;11.50;;
5813;SDS011;2933;52.302;8.134;2022-11-20T15:13:12;20.80;;;10.53;;
5813;SDS011;2933;52.302;8.134;2022-11-20T15:18:17;22.93;;;10.70;;
5813;SDS011;2933;52.302;8.134;2022-11-20T15:23:21;25.03;;;11.17;;
5813;SDS011;2933;52.302;8.134;2022-11-20T15:28:26;24.47;;;11.60;;
5813;SDS011;2933;52.302;8.134;2022-11-20T15:33:30;20.10;;;9.80;;
5813;SDS011;2933;52.302;8.134;2022-11-20T15:38:32;22.40;;;11.17;;
5813;SDS011;2933;52.302;8.134;2022-11-20T15:43:35;24.03;;;11.10;;
5813;SDS011;2933;52.302;8.134;2022-11-20T15:48:37;24.87;;;12.20;;
5813;SDS011;2933;52.302;8.134;2022-11-20T15:53:41;19.90;;;11.20;;
5813;SDS011;2933;52.302;8.134;2022-11-20T15:58:44;19.73;;;10.47;;
5813;SDS011;2933;52.302;8.134;2022-11-20T16:03:45;22.43;;;10.03;;
5813;SDS011;2933;52.302;8.134;2022-11-20T16:08:47;18.63;;;9.97;;
5813;SDS011;2933;52.302;8.134;2022-11-20T16:13:50;15.60;;;9.33;;
5813;SDS011;2933;52.302;8.134;2022-11-20T16:19:10;19.20;;;9.50;;
5813;SDS011;2933;52.302;8.134;2022-11-20T16:24:12;17.83;;;8.60;;
5813;SDS011;2933;52.302;8.134;2022-11-20T16:29:16;17.13;;;9.83;;
5813;SDS011;2933;52.302;8.134;2022-11-20T16:34:18;25.57;;;11.37;;
5813;SDS011;2933;52.302;8.134;2022-11-20T16:39:19;18.83;;;9.90;;
5813;SDS011;2933;52.302;8.134;2022-11-20T16:44:22;20.03;;;9.33;;
5813;SDS011;2933;52.302;8.134;2022-11-20T16:49:24;18.00;;;9.63;;
5813;SDS011;2933;52.302;8.134;2022-11-20T16:54:25;28.43;;;10.20;;
5813;SDS011;2933;52.302;8.134;2022-11-20T16:59:28;24.47;;;11.00;;
5813;SDS011;2933;52.302;8.134;2022-11-20T17:04:30;16.70;;;9.77;;
5813;SDS011;2933;52.302;8.134;2022-11-20T17:09:31;18.53;;;10.47;;
5813;SDS011;2933;52.302;8.134;2022-11-20T17:14:35;21.30;;;9.80;;
5813;SDS011;2933;52.302;8.134;2022-11-20T17:19:36;26.97;;;11.37;;
5813;SDS011;2933;52.302;8.134;2022-11-20T17:24:38;23.27;;;10.13;;
5813;SDS011;2933;52.302;8.134;2022-11-20T17:29:41;26.33;;;10.70;;
5813;SDS011;2933;52.302;8.134;2022-11-20T17:34:42;25.83;;;11.23;;
5813;SDS011;2933;52.302;8.134;2022-11-20T17:39:44;21.93;;;11.07;;
5813;SDS011;2933;52.302;8.134;2022-11-20T17:44:47;21.70;;;11.27;;
5813;SDS011;2933;52.302;8.134;2022-11-20T17:49:48;20.93;;;10.60;;
5813;SDS011;2933;52.302;8.134;2022-11-20T17:54:50;26.93;;;13.43;;
5813;SDS011;2933;52.302;8.134;2022-11-20T17:59:56;32.60;;;17.17;;
5813;SDS011;2933;52.302;8.134;2022-11-20T18:04:57;20.60;;;12.20;;
5813;SDS011;2933;52.302;8.134;2022-11-20T18:09:59;19.57;;;9.43;;
5813;SDS011;2933;52.302;8.134;2022-11-20T18:15:02;20.97;;;10.30;;
5813;SDS011;2933;52.302;8.134;2022-11-20T18:20:04;20.17;;;10.57;;
5813;SDS011;2933;52.302;8.134;2022-11-20T18:25:08;28.83;;;10.70;;
5813;SDS011;2933;52.302;8.134;2022-11-20T18:30:12;27.50;;;10.40;;
5813;SDS011;2933;52.302;8.134;2022-11-20T18:35:14;21.50;;;10.50;;
5813;SDS011;2933;52.302;8.134;2022-11-20T18:40:16;27.43;;;11.80;;
5813;SDS011;2933;52.302;8.134;2022-11-20T18:45:19;29.30;;;12.20;;
5813;SDS011;2933;52.302;8.134;2022-11-20T18:50:21;17.13;;;9.00;;
5813;SDS011;2933;52.302;8.134;2022-11-20T18:55:23;17.80;;;10.10;;
5813;SDS011;2933;52.302;8.134;2022-11-20T19:00:26;23.40;;;10.83;;
5813;SDS011;2933;52.302;8.134;2022-11-20T19:05:27;22.77;;;10.67;;
5813;SDS011;2933;52.302;8.134;2022-11-20T19:10:29;26.97;;;11.50;;
5813;SDS011;2933;52.302;8.134;2022-11-20T19:15:32;21.60;;;11.17;;
5813;SDS011;2933;52.302;8.134;2022-11-20T19:20:36;26.73;;;11.40;;
5813;SDS011;2933;52.302;8.134;2022-11-20T19:25:37;25.47;;;11.13;;
5813;SDS011;2933;52.302;8.134;2022-11-20T19:30:40;25.40;;;11.40;;
5813;SDS011;2933;52.302;8.134;2022-11-20T19:35:42;25.63;;;11.20;;
5813;SDS011;2933;52.302;8.134;2022-11-20T19:40:43;26.57;;;12.10;;
5813;SDS011;2933;52.302;8.134;2022-11-20T19:45:46;21.77;;;11.43;;
5813;SDS011;2933;52.302;8.134;2022-11-20T19:50:48;19.80;;;11.40;;
5813;SDS011;2933;52.302;8.134;2022-11-20T19:55:56;26.13;;;11.10;;
5813;SDS011;2933;52.302;8.134;2022-11-20T20:01:05;21.47;;;11.43;;
5813;SDS011;2933;52.302;8.134;2022-11-20T20:06:08;26.37;;;12.70;;
5813;SDS011;2933;52.302;8.134;2022-11-20T20:11:13;26.00;;;11.67;;
5813;SDS011;2933;52.302;8.134;2022-11-20T20:16:18;27.87;;;12.80;;
5813;SDS011;2933;52.302;8.134;2022-11-20T20:21:22;34.47;;;14.03;;
5813;SDS011;2933;52.302;8.134;2022-11-20T20:26:24;25.70;;;11.00;;
5813;SDS011;2933;52.302;8.134;2022-11-20T20:31:29;21.10;;;9.77;;
5813;SDS011;2933;52.302;8.134;2022-11-20T20:36:32;21.27;;;10.83;;
5813;SDS011;2933;52.302;8.134;2022-11-20T20:41:33;20.73;;;11.13;;
5813;SDS011;2933;52.302;8.134;2022-11-20T20:46:36;26.83;;;11.90;;
5813;SDS011;2933;52.302;8.134;2022-11-20T20:51:38;27.90;;;10.93;;
5813;SDS011;2933;52.302;8.134;2022-11-20T20:56:39;24.73;;;11.97;;
5813;SDS011;2933;52.302;8.134;2022-11-20T21:01:42;22.30;;;11.30;;
5813;SDS011;2933;52.302;8.134;2022-11-20T21:06:44;27.63;;;12.20;;
5813;SDS011;2933;52.302;8.134;2022-11-20T21:11:45;23.10;;;11.00;;
5813;SDS011;2933;52.302;8.134;2022-11-20T21:16:48;25.70;;;12.13;;
5813;SDS011;2933;52.302;8.134;2022-11-20T21:21:50;25.63;;;11.33;;
5813;SDS011;2933;52.302;8.134;2022-11-20T21:27:02;23.07;;;10.50;;
5813;SDS011;2933;52.302;8.134;2022-11-20T21:32:06;21.40;;;11.30;;
5813;SDS011;2933;52.302;8.134;2022-11-20T21:37:08;24.77;;;12.30;;
5813;SDS011;2933;52.302;8.134;2022-11-20T21:42:09;24.23;;;12.77;;
5813;SDS011;2933;52.302;8.134;2022-11-20T21:47:12;24.37;;;13.30;;
5813;SDS011;2933;52.302;8.134;2022-11-20T21:52:14;25.40;;;12.10;;
5813;SDS011;2933;52.302;8.134;2022-11-20T21:57:15;29.17;;;12.70;;
5813;SDS011;2933;52.302;8.134;2022-11-20T22:02:18;23.20;;;12.40;;
5813;SDS011;2933;52.302;8.134;2022-11-20T22:07:20;25.27;;;11.90;;
5813;SDS011;2933;52.302;8.134;2022-11-20T22:12:22;20.50;;;10.70;;
5813;SDS011;2933;52.302;8.134;2022-11-20T22:17:25;23.57;;;10.97;;
5813;SDS011;2933;52.302;8.134;2022-11-20T22:22:40;26.77;;;12.47;;
5813;SDS011;2933;52.302;8.134;2022-11-20T22:27:44;23.33;;;12.40;;
5813;SDS011;2933;52.302;8.134;2022-11-20T22:32:47;22.03;;;11.53;;
5813;SDS011;2933;52.302;8.134;2022-11-20T22:37:53;24.07;;;11.67;;
5813;SDS011;2933;52.302;8.134;2022-11-20T22:42:54;23.20;;;11.90;;
5813;SDS011;2933;52.302;8.134;2022-11-20T22:47:57;23.43;;;11.77;;
5813;SDS011;2933;52.302;8.134;2022-11-20T22:52:59;24.53;;;11.07;;
5813;SDS011;2933;52.302;8.134;2022-11-20T22:58:00;22.80;;;11.20;;
5813;SDS011;2933;52.302;8.134;2022-11-20T23:03:03;22.97;;;10.70;;
5813;SDS011;2933;52.302;8.134;2022-11-20T23:08:05;23.37;;;11.10;;
5813;SDS011;2933;52.302;8.134;2022-11-20T23:13:06;20.43;;;11.00;;
5813;SDS011;2933;52.302;8.134;2022-11-20T23:18:09;21.37;;;10.47;;
5813;SDS011;2933;52.302;8.134;2022-11-20T23:23:11;24.67;;;11.00;;
5813;SDS011;2933;52.302;8.134;2022-11-20T23:28:13;23.47;;;10.80;;
5813;SDS011;2933;52.302;8.134;2022-11-20T23:33:15;19.03;;;10.80;;
5813;SDS011;2933;52.302;8.134;2022-11-20T23:38:17;23.17;;;11.37;;
5813;SDS011;2933;52.302;8.134;2022-11-20T23:43:19;20.13;;;10.70;;
5813;SDS011;2933;52.302;8.134;2022-11-20T23:48:24;24.47;;;11.40;;
5813;SDS011;2933;52.302;8.134;2022-11-20T23:53:27;20.03;;;9.93;;
5813;SDS011;2933;52.302;8.134;2022-11-20T23:58:30;18.57;;;9.50;;
